Baileyville, IL (61007)

8:56 AM CDT on September 29, 2016 (GMT -0500)
wind swept valley | | Change Station

Elev 810 ft 42.25 °N, 89.55 °W | Updated 32 seconds ago

Overcast
Overcast
56.5 °F
Feels Like 56.5 °F
N
7.0
Wind Variable Wind from NNE

Today
High -- | Low -- °F
--% Chance of Precip.
Yesterday
High -- | Low -- °F
Precip. -- in
Pressure 30.27 in
Visibility 10.0 miles
Clouds Overcast 1200 ft
Dew Point 50 °F
Humidity 81%
Rainfall 0.11 in
Snow Depth Not available.
6:53 AM 6:42 PM
Waning Crescent, 2% visible
METAR KFEP 291335Z AUTO 35009KT 10SM OVC012 13/11 A3027 RMK AO2 T01290107
Pressure 30.27 in
Visibility 10.0 miles
Clouds Overcast 1200 ft
Dew Point 50 °F
Humidity 81%
Rainfall 0.11 in
Snow Depth Not available.
6:53 AM 6:42 PM
Waning Crescent, 2% visible
METAR KFEP 291335Z AUTO 35009KT 10SM OVC012 13/11 A3027 RMK AO2 T01290107

10-Day Weather Forecast

Almanac

Astronomy

Sep. 29, 2016 Rise Set
Actual Time
Civil Twilight
Nautical Twilight
Astronomical Twilight
Moon
Length of Visible Light
Length of Day
Tomorrow will be .
, % of the Moon is Illuminated

Today's Extremes

State Highs State Lows

Community

WunderPhotos

Upload Photos

1,942,470 photos uploaded!

WunderBlog® & News

Nearby

Air Quality

  Air Quality AQ Index Pollutant
Not available.

Snow Depth

Station Depth Elevation

Earthquake Activity

City Distance Mag. Time & Date
Minimum magnitude displayed is 2.5.

Coastal Water Temperatures

Place Temperature

Stations

Nearby Weather Stations

Station Location Temp. Windchill Dew Point Humidity Wind Precip. Elev Updated Type
                   

Watches & Warnings

There are currently no watches in effect.